Time;durP1;ratioP1;P1;durP2;ratioP2;P2;SDS_P1;SDS_P2;PMS_P1;PMS_P2;Temp;Humidity;BMP_temperature;BMP_pressure;BME280_temperature;BME280_humidity;BME280_pressure;Samples;Min_cycle;Max_cycle;Signal;HPM_P1;HPM_P2
2021/03/10 00:01:01;;;;;;;;;;;;;;;-0.81;86.29;93072.78;1412342;40;21227;31
2021/03/10 00:02:15;;;;;;;;;;;;;;;-0.84;85.89;93077.94;1412745;39;20247;31
2021/03/10 00:03:29;;;;;;;;;;;;;;;-0.76;86.70;93077.75;1422854;39;22207;31
2021/03/10 00:04:43;;;;;;;;;;;;;;;-0.72;86.39;93084.94;1412712;39;20378;31
2021/03/10 00:05:57;;;;;;;;;;;;;;;-0.77;86.88;93078.84;1419128;39;22789;31
2021/03/10 00:07:11;;;;;;;;;;;;;;;-0.79;86.58;93085.53;1435274;39;20612;31
2021/03/10 00:08:25;;;;;;;;;;;;;;;-0.77;87.07;93081.47;1419296;39;20215;31
2021/03/10 00:10:45;;;;;;;;;;;;;;;-0.74;87.12;93077.41;1406395;40;20208;31
2021/03/10 00:11:58;;;;;;;;;;;;;;;-0.79;86.81;93073.19;1427530;39;20254;31
2021/03/10 00:13:12;;;;;;;;;;;;;;;-0.82;87.15;93078.38;1423775;39;21285;31
2021/03/10 00:14:16;;;;;;;;;;;;;;;-0.85;87.18;93081.69;1421788;39;20231;31
2021/03/10 00:16:23;;;;;;;;;;;;;;;-0.88;87.18;93070.03;1432610;39;20222;31
2021/03/10 00:17:37;;;;;;;;;;;;;;;-0.87;86.89;93076.78;1423922;39;20239;31
2021/03/10 00:18:51;;;;;;;;;;;;;;;-0.82;86.71;93065.25;1427676;39;21095;31
2021/03/10 00:20:05;;;;;;;;;;;;;;;-0.79;86.70;93067.97;1417181;39;20238;31
2021/03/10 00:21:09;;;;;;;;;;;;;;;-0.84;87.42;93067.44;1423656;39;21076;31
2021/03/10 00:23:30;;;;;;;;;;;;;;;-0.83;87.38;93082.09;1423829;39;20246;31
2021/03/10 00:24:44;;;;;;;;;;;;;;;-0.93;87.43;93077.38;1427111;39;21257;31
2021/03/10 00:25:48;;;;;;;;;;;;;;;-0.95;87.89;93087.47;1425380;39;21174;31
2021/03/10 00:28:06;;;;;;;;;;;;;;;-0.94;87.81;93078.50;1436957;39;20272;31
2021/03/10 00:29:20;;;;;;;;;;;;;;;-0.96;87.68;93088.59;1424778;39;20626;31
2021/03/10 00:30:34;;;;;;;;;;;;;;;-0.93;87.81;93086.00;1426888;39;20234;31
2021/03/10 00:31:48;;;;;;;;;;;;;;;-0.87;88.04;93087.28;1431685;39;21184;31
2021/03/10 00:32:52;;;;;;;;;;;;;;;-0.78;87.81;93082.59;1427195;39;20229;31
2021/03/10 00:34:06;;;;;;;;;;;;;;;-0.70;87.16;93080.09;1427539;39;20441;31
2021/03/10 00:35:11;;;;;;;;;;;;;;;-0.73;87.52;93086.03;1413366;39;20316;31
2021/03/10 00:37:29;;;;;;;;;;;;;;;-0.62;87.20;93087.75;1434477;39;22334;31
2021/03/10 00:38:43;;;;;;;;;;;;;;;-0.74;87.58;93097.66;1432963;39;21265;31
2021/03/10 00:39:48;;;;;;;;;;;;;;;-0.69;87.80;93094.75;1425320;39;21218;31
2021/03/10 00:41:56;;;;;;;;;;;;;;;-0.67;87.68;93085.41;1429281;39;22428;31
2021/03/10 00:43:10;;;;;;;;;;;;;;;-0.65;87.29;93093.72;1425734;39;20227;31
2021/03/10 00:44:24;;;;;;;;;;;;;;;-0.76;87.45;93100.59;1431871;39;21269;31
2021/03/10 00:45:38;;;;;;;;;;;;;;;-0.77;87.99;93105.09;1436300;39;20218;31
2021/03/10 00:46:52;;;;;;;;;;;;;;;-0.77;87.71;93099.84;1428185;39;20237;31
2021/03/10 00:48:06;;;;;;;;;;;;;;;-0.77;87.97;93101.72;1421492;39;21142;31
2021/03/10 00:49:20;;;;;;;;;;;;;;;-0.76;87.74;93098.72;1411942;39;20273;31
2021/03/10 00:50:34;;;;;;;;;;;;;;;-0.81;87.75;93101.63;1427546;39;20247;31
2021/03/10 00:51:49;;;;;;;;;;;;;;;-0.83;87.11;93103.84;1418661;39;20211;31
2021/03/10 00:53:02;;;;;;;;;;;;;;;-0.89;88.00;93114.94;1430644;39;21157;31
2021/03/10 00:54:20;;;;;;;;;;;;;;;-0.83;87.71;93106.47;1411640;40;20215;31
2021/03/10 00:55:34;;;;;;;;;;;;;;;-0.91;86.34;93106.69;1421727;39;20238;31
2021/03/10 00:56:48;;;;;;;;;;;;;;;-1.03;87.16;93102.31;1421724;39;21093;31
2021/03/10 00:59:22;;;;;;;;;;;;;;;-1.18;88.17;93111.72;1441233;39;20244;31
2021/03/10 01:01:40;;;;;;;;;;;;;;;-1.11;87.72;93101.38;1431916;39;20244;31
2021/03/10 01:02:54;;;;;;;;;;;;;;;-1.16;87.92;93101.66;1413616;39;21639;31
2021/03/10 01:04:08;;;;;;;;;;;;;;;-1.25;88.28;93102.94;1420106;39;20318;31
2021/03/10 01:05:22;;;;;;;;;;;;;;;-1.36;88.28;93098.22;1425093;39;20187;31
2021/03/10 01:06:36;;;;;;;;;;;;;;;-1.35;88.67;93102.38;1426053;39;21194;31
2021/03/10 01:07:50;;;;;;;;;;;;;;;-1.31;88.32;93097.22;1427878;39;20201;31
2021/03/10 01:08:53;;;;;;;;;;;;;;;-1.46;88.55;93090.13;1429582;39;22415;31
2021/03/10 01:10:06;;;;;;;;;;;;;;;-1.50;88.66;93082.16;1427252;39;20187;31
2021/03/10 01:11:10;;;;;;;;;;;;;;;-1.55;89.82;93093.66;1421703;39;22574;31
2021/03/10 01:13:28;;;;;;;;;;;;;;;-1.61;89.83;93089.03;1439536;39;20336;31
2021/03/10 01:14:44;;;;;;;;;;;;;;;-1.70;89.45;93088.44;1430683;39;21131;31
2021/03/10 01:15:47;;;;;;;;;;;;;;;-1.59;90.18;93089.44;1425436;39;21288;31
2021/03/10 01:19:10;;;;;;;;;;;;;;;-1.63;90.35;93094.59;1443944;39;20209;31
2021/03/10 01:20:24;;;;;;;;;;;;;;;-1.59;90.28;93090.19;1428733;39;20242;31
2021/03/10 01:21:38;;;;;;;;;;;;;;;-1.56;90.04;93086.16;1431489;39;21107;31
2021/03/10 01:22:52;;;;;;;;;;;;;;;-1.56;90.01;93086.91;1424289;39;20222;31
2021/03/10 01:24:06;;;;;;;;;;;;;;;-1.56;89.87;93091.41;1405483;40;21117;31
2021/03/10 01:25:20;;;;;;;;;;;;;;;-1.54;90.29;93094.44;1421598;39;20219;31
2021/03/10 01:26:34;;;;;;;;;;;;;;;-1.58;90.52;93091.75;1421814;39;20305;31
2021/03/10 01:27:48;;;;;;;;;;;;;;;-1.62;90.35;93090.91;1418664;39;20250;31
2021/03/10 01:28:52;;;;;;;;;;;;;;;-1.60;90.80;93090.56;1415700;39;21733;31
2021/03/10 01:30:06;;;;;;;;;;;;;;;-1.61;90.08;93095.03;1420514;39;20236;31
2021/03/10 01:31:20;;;;;;;;;;;;;;;-1.60;89.84;93091.31;1420398;39;20327;31
2021/03/10 01:32:34;;;;;;;;;;;;;;;-1.53;90.06;93091.47;1434593;39;20225;31
2021/03/10 01:33:48;;;;;;;;;;;;;;;-1.60;89.61;93091.31;1434850;39;21577;31
2021/03/10 01:35:02;;;;;;;;;;;;;;;-1.62;89.45;93087.53;1423162;39;21225;31
2021/03/10 01:36:07;;;;;;;;;;;;;;;-1.63;90.09;93094.59;1420153;39;20578;31
2021/03/10 01:37:20;;;;;;;;;;;;;;;-1.62;89.15;93093.53;1417976;39;21267;31
2021/03/10 01:38:34;;;;;;;;;;;;;;;-1.60;89.06;93096.56;1428668;39;21208;31
2021/03/10 01:39:48;;;;;;;;;;;;;;;-1.60;89.43;93101.03;1415759;39;21201;31
2021/03/10 01:41:12;;;;;;;;;;;;;;;-1.63;89.75;93091.22;1411774;39;20254;31
2021/03/10 01:42:26;;;;;;;;;;;;;;;-1.54;89.17;93087.34;1422496;39;20227;31
2021/03/10 01:43:40;;;;;;;;;;;;;;;-1.59;89.33;93092.81;1412437;39;21310;31
2021/03/10 01:44:55;;;;;;;;;;;;;;;-1.58;89.25;93086.50;1412137;39;20280;31
2021/03/10 01:45:59;;;;;;;;;;;;;;;-1.53;89.04;93093.34;1420260;39;20304;31
2021/03/10 01:49:31;;;;;;;;;;;;;;;-1.48;90.06;93092.31;1429855;39;20364;31
2021/03/10 01:50:36;;;;;;;;;;;;;;;-1.50;89.84;93087.41;1430907;39;21188;31
2021/03/10 01:52:54;;;;;;;;;;;;;;;-1.54;90.22;93089.97;1446639;39;20226;31
2021/03/10 01:54:08;;;;;;;;;;;;;;;-1.57;89.99;93082.03;1426010;39;20203;31
2021/03/10 01:55:22;;;;;;;;;;;;;;;-1.57;90.55;93084.62;1426557;39;20203;31
2021/03/10 01:56:28;;;;;;;;;;;;;;;-1.43;90.20;93077.09;1423763;39;21153;31
2021/03/10 01:57:32;;;;;;;;;;;;;;;-1.44;89.95;93083.44;1414811;39;20307;31
2021/03/10 01:58:47;;;;;;;;;;;;;;;-1.41;89.79;93082.75;1438599;39;21630;31
2021/03/10 02:00:01;;;;;;;;;;;;;;;-1.42;90.14;93080.47;1425213;39;21235;31
2021/03/10 02:01:05;;;;;;;;;;;;;;;-1.48;90.34;93073.97;1415775;39;21184;31
2021/03/10 02:03:14;;;;;;;;;;;;;;;-1.45;90.18;93065.41;1439156;39;20284;31
2021/03/10 02:05:32;;;;;;;;;;;;;;;-1.36;89.40;93068.59;1427327;39;20195;31
2021/03/10 02:06:46;;;;;;;;;;;;;;;-1.26;89.24;93062.84;1418013;39;20243;31
2021/03/10 02:08:00;;;;;;;;;;;;;;;-1.36;89.60;93069.41;1419702;39;20203;31
2021/03/10 02:09:10;;;;;;;;;;;;;;;-1.43;89.05;93074.47;1424782;39;21210;31
2021/03/10 02:10:23;;;;;;;;;;;;;;;-1.38;89.95;93071.59;1428537;39;21220;31
2021/03/10 02:11:27;;;;;;;;;;;;;;;-1.39;89.42;93072.69;1423329;39;20235;31
2021/03/10 02:12:41;;;;;;;;;;;;;;;-1.33;89.41;93073.19;1418661;39;21141;31
2021/03/10 02:13:48;;;;;;;;;;;;;;;-1.31;89.66;93077.00;1428876;39;21140;31
2021/03/10 02:16:06;;;;;;;;;;;;;;;-1.09;88.71;93074.84;1430199;39;20253;31
2021/03/10 02:17:20;;;;;;;;;;;;;;;-1.16;89.09;93077.28;1430951;39;21196;31
2021/03/10 02:18:34;;;;;;;;;;;;;;;-1.32;89.31;93079.94;1422196;39;20498;31
2021/03/10 02:19:48;;;;;;;;;;;;;;;-1.38;89.95;93073.44;1429049;39;21261;31
2021/03/10 02:21:02;;;;;;;;;;;;;;;-1.43;90.55;93074.47;1424136;39;21324;31
2021/03/10 02:22:14;;;;;;;;;;;;;;;-1.28;90.86;93076.28;1426044;39;21164;31
2021/03/10 02:23:28;;;;;;;;;;;;;;;-1.25;90.13;93069.62;1420693;39;21207;31
2021/03/10 02:24:51;;;;;;;;;;;;;;;-1.31;89.81;93071.75;1419135;39;20192;31
2021/03/10 02:27:10;;;;;;;;;;;;;;;-1.32;89.87;93070.22;1426996;39;20235;31
2021/03/10 02:28:15;;;;;;;;;;;;;;;-1.33;89.84;93065.31;1443690;39;20209;31
2021/03/10 02:30:31;;;;;;;;;;;;;;;-1.34;90.44;93054.06;1441928;39;20214;31
2021/03/10 02:31:46;;;;;;;;;;;;;;;-1.31;90.19;93053.41;1427311;39;20258;31
2021/03/10 02:33:00;;;;;;;;;;;;;;;-1.17;89.84;93065.28;1416616;39;21392;31
2021/03/10 02:34:14;;;;;;;;;;;;;;;-1.29;89.72;93069.53;1418552;39;21364;31
2021/03/10 02:35:28;;;;;;;;;;;;;;;-1.31;89.35;93063.88;1401776;40;20273;31
2021/03/10 02:36:42;;;;;;;;;;;;;;;-1.32;90.07;93069.44;1416119;39;21219;31
2021/03/10 02:37:56;;;;;;;;;;;;;;;-1.18;89.67;93064.53;1432991;39;21404;31
2021/03/10 02:39:03;;;;;;;;;;;;;;;-1.21;89.79;93069.69;1426538;39;20329;31
2021/03/10 02:40:17;;;;;;;;;;;;;;;-1.26;89.84;93068.09;1430602;39;20202;31
2021/03/10 02:41:22;;;;;;;;;;;;;;;-1.27;90.19;93067.34;1432556;39;21349;31
2021/03/10 02:43:28;;;;;;;;;;;;;;;-1.20;89.89;93071.22;1424871;39;20334;31
2021/03/10 02:45:35;;;;;;;;;;;;;;;-1.25;90.43;93077.47;1429909;39;21219;31
2021/03/10 02:46:48;;;;;;;;;;;;;;;-1.16;90.67;93072.03;1422787;39;20267;31
2021/03/10 02:47:53;;;;;;;;;;;;;;;-1.15;90.15;93071.69;1427213;39;21383;31
2021/03/10 02:50:10;;;;;;;;;;;;;;;-0.98;90.42;93075.03;1431472;39;20261;31
2021/03/10 02:51:24;;;;;;;;;;;;;;;-1.11;90.11;93074.41;1426278;39;20254;31
2021/03/10 02:52:30;;;;;;;;;;;;;;;-1.07;90.02;93073.37;1419161;39;22122;31
2021/03/10 02:53:44;;;;;;;;;;;;;;;-1.02;89.82;93075.72;1420452;39;21132;31
2021/03/10 02:54:49;;;;;;;;;;;;;;;-1.07;90.50;93076.00;1435133;39;22461;31
2021/03/10 02:55:53;;;;;;;;;;;;;;;-1.05;90.63;93076.41;1424607;39;22418;31
2021/03/10 02:56:55;;;;;;;;;;;;;;;-1.16;91.19;93079.91;1420568;39;22416;31
2021/03/10 02:58:09;;;;;;;;;;;;;;;-1.00;90.69;93077.25;1422041;39;20311;31
2021/03/10 02:59:14;;;;;;;;;;;;;;;-1.05;90.67;93075.66;1423313;39;20222;31
2021/03/10 03:02:26;;;;;;;;;;;;;;;-1.12;90.70;93089.38;1445410;39;21657;31
2021/03/10 03:05:07;;;;;;;;;;;;;;;-1.09;90.44;93096.56;1433667;39;20630;31
2021/03/10 03:06:11;;;;;;;;;;;;;;;-1.08;90.94;93094.69;1420692;39;21071;31
2021/03/10 03:08:28;;;;;;;;;;;;;;;-1.09;91.26;93099.19;1428698;39;22424;31
2021/03/10 03:11:48;;;;;;;;;;;;;;;-1.16;90.95;93093.03;1428192;39;20254;31
2021/03/10 03:16:13;;;;;;;;;;;;;;;-1.12;91.15;93097.25;1446239;39;21244;31
2021/03/10 03:17:27;;;;;;;;;;;;;;;-1.04;91.27;93106.78;1430346;39;20221;31
2021/03/10 03:18:41;;;;;;;;;;;;;;;-1.12;91.27;93101.72;1430352;39;20191;31
2021/03/10 03:19:55;;;;;;;;;;;;;;;-1.15;91.67;93107.66;1424833;39;21623;31
2021/03/10 03:21:09;;;;;;;;;;;;;;;-1.15;91.70;93111.03;1421174;39;20183;31
2021/03/10 03:22:15;;;;;;;;;;;;;;;-1.19;92.08;93101.56;1431024;39;22383;31
2021/03/10 03:24:39;;;;;;;;;;;;;;;-1.21;91.68;93101.91;1435766;39;21154;31
2021/03/10 03:28:16;;;;;;;;;;;;;;;-0.87;91.15;93115.38;1443314;39;20218;31
2021/03/10 03:29:24;;;;;;;;;;;;;;;-0.79;90.32;93119.66;1431756;39;20242;31
2021/03/10 03:30:38;;;;;;;;;;;;;;;-0.94;90.39;93136.22;1428257;39;21212;31
2021/03/10 03:31:52;;;;;;;;;;;;;;;-1.03;90.81;93126.66;1419257;39;20907;31
2021/03/10 03:42:33;;;;;;;;;;;;;;;-1.02;93.45;93127.41;1432658;39;20203;31
2021/03/10 03:43:46;;;;;;;;;;;;;;;-1.00;93.69;93125.22;1423271;39;20312;31
2021/03/10 03:45:00;;;;;;;;;;;;;;;-1.06;94.34;93132.59;1432699;39;20219;31
2021/03/10 03:46:15;;;;;;;;;;;;;;;-1.08;94.53;93132.19;1425300;39;20253;31
2021/03/10 03:47:29;;;;;;;;;;;;;;;-1.08;94.83;93126.19;1434380;39;20218;31
2021/03/10 03:48:43;;;;;;;;;;;;;;;-1.04;94.66;93127.00;1428639;39;20219;31
2021/03/10 03:49:57;;;;;;;;;;;;;;;-1.04;94.56;93132.25;1422290;39;20239;31
2021/03/10 03:51:11;;;;;;;;;;;;;;;-1.04;95.09;93122.53;1429612;39;21330;31
2021/03/10 03:52:25;;;;;;;;;;;;;;;-0.89;94.59;93118.34;1420540;39;21217;31
2021/03/10 03:53:29;;;;;;;;;;;;;;;-0.92;94.10;93121.66;1424937;39;20235;31
2021/03/10 03:54:43;;;;;;;;;;;;;;;-0.92;94.05;93124.28;1424711;39;20227;31
2021/03/10 03:55:58;;;;;;;;;;;;;;;-0.99;94.06;93128.59;1424494;39;20216;31
2021/03/10 03:57:05;;;;;;;;;;;;;;;-0.82;94.13;93125.59;1417091;39;20210;31
2021/03/10 03:59:11;;;;;;;;;;;;;;;-1.00;93.68;93127.09;1444014;39;22461;31
2021/03/10 04:00:26;;;;;;;;;;;;;;;-0.99;93.82;93120.75;1421074;39;20282;31
2021/03/10 04:01:39;;;;;;;;;;;;;;;-1.00;93.84;93127.84;1416656;39;20231;31
2021/03/10 04:02:45;;;;;;;;;;;;;;;-1.07;94.27;93136.31;1420603;39;20223;31
2021/03/10 04:03:48;;;;;;;;;;;;;;;-1.07;94.15;93135.56;1427937;39;21119;31
2021/03/10 04:05:02;;;;;;;;;;;;;;;-1.11;94.35;93127.59;1416618;39;20223;31
2021/03/10 04:06:16;;;;;;;;;;;;;;;-1.07;94.80;93128.44;1430513;39;21193;31
2021/03/10 04:07:18;;;;;;;;;;;;;;;-1.02;94.32;93130.81;1428350;39;20569;31
2021/03/10 04:09:27;;;;;;;;;;;;;;;-1.04;94.62;93133.00;1425760;39;21228;31
2021/03/10 04:11:45;;;;;;;;;;;;;;;-1.05;93.79;93122.88;1434239;39;21359;31
2021/03/10 04:12:49;;;;;;;;;;;;;;;-1.08;94.51;93119.06;1423866;39;20245;31
2021/03/10 04:14:03;;;;;;;;;;;;;;;-1.02;94.21;93122.19;1428626;39;20227;31
2021/03/10 04:16:10;;;;;;;;;;;;;;;-1.04;94.13;93119.91;1423409;39;20231;31
2021/03/10 04:17:24;;;;;;;;;;;;;;;-1.07;94.55;93131.06;1430041;39;20246;31
2021/03/10 04:18:29;;;;;;;;;;;;;;;-1.01;94.58;93123.69;1430405;39;20269;31
2021/03/10 04:19:33;;;;;;;;;;;;;;;-1.03;94.54;93128.53;1431978;39;20257;31
2021/03/10 04:20:47;;;;;;;;;;;;;;;-1.06;94.13;93121.34;1426789;39;21646;31
2021/03/10 04:21:51;;;;;;;;;;;;;;;-1.06;94.69;93119.47;1411303;39;20212;31
2021/03/10 04:29:29;;;;;;;;;;;;;;;-1.27;94.25;93135.50;1443549;39;20256;31
2021/03/10 04:30:43;;;;;;;;;;;;;;;-1.29;93.70;93132.47;1425733;39;21232;31
2021/03/10 04:31:47;;;;;;;;;;;;;;;-1.30;93.78;93138.06;1414101;39;21166;31
2021/03/10 04:32:51;;;;;;;;;;;;;;;-1.33;94.50;93138.72;1417965;39;20196;31
2021/03/10 04:33:56;;;;;;;;;;;;;;;-1.33;94.65;93138.72;1424097;39;21178;31
2021/03/10 04:35:10;;;;;;;;;;;;;;;-1.36;94.75;93145.41;1417641;39;20223;31
2021/03/10 04:36:24;;;;;;;;;;;;;;;-1.37;94.20;93135.25;1432466;39;21119;31
2021/03/10 04:37:28;;;;;;;;;;;;;;;-1.33;94.04;93141.34;1431659;39;21270;31
2021/03/10 04:38:42;;;;;;;;;;;;;;;-1.27;93.71;93137.38;1428601;39;21169;31
2021/03/10 04:39:56;;;;;;;;;;;;;;;-1.30;93.38;93136.19;1429593;39;21265;31
2021/03/10 04:41:00;;;;;;;;;;;;;;;-1.27;93.27;93142.63;1425229;39;20183;31
2021/03/10 04:42:05;;;;;;;;;;;;;;;-1.32;94.12;93142.84;1416736;39;21170;31
2021/03/10 04:43:19;;;;;;;;;;;;;;;-1.30;93.97;93138.06;1425736;39;21102;31
2021/03/10 04:44:34;;;;;;;;;;;;;;;-1.35;94.50;93148.81;1425800;39;20215;31
2021/03/10 04:45:38;;;;;;;;;;;;;;;-1.36;94.76;93148.03;1419151;39;22552;31
2021/03/10 04:47:57;;;;;;;;;;;;;;;-1.41;94.61;93150.13;1449291;39;21146;31
2021/03/10 04:49:11;;;;;;;;;;;;;;;-1.45;94.27;93144.03;1426037;39;20246;31
2021/03/10 04:50:14;;;;;;;;;;;;;;;-1.46;94.72;93147.78;1423024;39;20315;31
2021/03/10 04:51:27;;;;;;;;;;;;;;;-1.51;93.94;93143.56;1428511;39;20342;31
2021/03/10 04:52:34;;;;;;;;;;;;;;;-1.54;94.12;93144.22;1418209;39;21231;31
2021/03/10 04:53:47;;;;;;;;;;;;;;;-1.51;93.82;93146.16;1423096;39;21082;31
2021/03/10 04:54:49;;;;;;;;;;;;;;;-1.62;94.17;93145.16;1423300;39;22818;31
2021/03/10 04:56:03;;;;;;;;;;;;;;;-1.69;93.89;93151.00;1431321;39;21384;31
2021/03/10 04:57:05;;;;;;;;;;;;;;;-1.69;94.54;93148.37;1416998;39;22441;31
2021/03/10 04:58:10;;;;;;;;;;;;;;;-1.70;94.16;93146.84;1410571;40;21774;31
2021/03/10 04:59:11;;;;;;;;;;;;;;;-1.72;94.41;93149.03;1429845;39;20215;31
2021/03/10 05:00:25;;;;;;;;;;;;;;;-1.79;94.94;93147.00;1422763;39;20314;31
2021/03/10 05:03:43;;;;;;;;;;;;;;;-1.83;94.12;93150.66;1423417;39;20319;31
2021/03/10 05:04:47;;;;;;;;;;;;;;;-1.83;94.45;93153.25;1421656;39;21709;31
2021/03/10 05:06:01;;;;;;;;;;;;;;;-1.84;94.19;93157.00;1432184;39;23029;31
2021/03/10 05:12:22;;;;;;;;;;;;;;;-1.59;93.69;93160.19;1429483;39;20226;31
2021/03/10 05:13:28;;;;;;;;;;;;;;;-1.66;93.78;93163.44;1421643;39;21222;31
2021/03/10 05:14:42;;;;;;;;;;;;;;;-1.56;93.46;93162.91;1413235;39;21127;31
2021/03/10 05:15:46;;;;;;;;;;;;;;;-1.59;93.82;93160.19;1404146;40;22376;31
2021/03/10 05:17:00;;;;;;;;;;;;;;;-1.60;94.01;93164.69;1412239;40;20232;31
2021/03/10 05:18:04;;;;;;;;;;;;;;;-1.55;94.49;93163.66;1425930;39;20210;31
2021/03/10 05:19:08;;;;;;;;;;;;;;;-1.58;94.65;93166.97;1435680;39;21152;31
2021/03/10 05:20:22;;;;;;;;;;;;;;;-1.54;94.38;93165.19;1414458;39;20230;31
2021/03/10 05:21:26;;;;;;;;;;;;;;;-1.53;94.69;93172.72;1425262;39;20215;31
2021/03/10 05:22:31;;;;;;;;;;;;;;;-1.49;94.67;93169.41;1431222;39;20403;31
2021/03/10 05:25:42;;;;;;;;;;;;;;;-1.50;94.79;93167.91;1443208;39;21467;31
2021/03/10 05:26:56;;;;;;;;;;;;;;;-1.47;94.52;93173.22;1421321;39;21271;31
2021/03/10 05:28:10;;;;;;;;;;;;;;;-1.48;94.69;93173.56;1413242;39;21266;31
2021/03/10 05:29:24;;;;;;;;;;;;;;;-1.57;94.58;93174.50;1398679;40;22127;31
2021/03/10 05:30:40;;;;;;;;;;;;;;;-1.50;94.07;93173.91;1395201;40;20333;31
2021/03/10 05:31:54;;;;;;;;;;;;;;;-1.56;94.43;93176.00;1398463;40;20249;31
2021/03/10 05:32:58;;;;;;;;;;;;;;;-1.58;94.30;93169.56;1425177;39;20211;31
2021/03/10 05:38:36;;;;;;;;;;;;;;;-1.78;94.69;93166.88;1415751;39;21235;31
2021/03/10 05:39:50;;;;;;;;;;;;;;;-1.78;94.69;93168.72;1430513;39;20345;31
2021/03/10 05:41:08;;;;;;;;;;;;;;;-1.87;94.91;93178.59;1429649;39;20322;31
2021/03/10 05:43:26;;;;;;;;;;;;;;;-1.93;95.21;93177.31;1442781;39;20214;31
2021/03/10 05:44:30;;;;;;;;;;;;;;;-1.95;95.09;93175.03;1429067;39;21197;31
2021/03/10 05:46:38;;;;;;;;;;;;;;;-1.90;95.35;93174.78;1430305;39;20208;31
2021/03/10 05:47:41;;;;;;;;;;;;;;;-1.94;94.74;93178.41;1432259;39;21192;31
2021/03/10 05:49:49;;;;;;;;;;;;;;;-2.03;95.22;93173.31;1440585;39;20270;31
2021/03/10 05:51:03;;;;;;;;;;;;;;;-2.04;94.99;93183.03;1425858;39;20293;31
2021/03/10 05:53:09;;;;;;;;;;;;;;;-1.97;95.61;93176.47;1422339;39;22321;31
2021/03/10 05:54:13;;;;;;;;;;;;;;;-1.96;95.16;93180.63;1419404;39;20261;31
2021/03/10 05:55:27;;;;;;;;;;;;;;;-1.92;95.32;93184.84;1420744;39;20418;31
2021/03/10 05:56:41;;;;;;;;;;;;;;;-1.98;95.58;93182.78;1415653;39;21259;31
2021/03/10 05:57:55;;;;;;;;;;;;;;;-2.03;96.05;93176.69;1421819;39;20251;31
2021/03/10 06:00:26;;;;;;;;;;;;;;;-1.88;95.56;93180.47;1415968;39;22593;31
2021/03/10 06:01:39;;;;;;;;;;;;;;;-1.91;95.50;93178.50;1414884;39;20472;31
2021/03/10 06:02:44;;;;;;;;;;;;;;;-1.86;95.28;93185.38;1416746;39;20219;31
2021/03/10 06:03:55;;;;;;;;;;;;;;;-1.91;95.50;93177.75;1425151;39;22577;31
2021/03/10 06:05:08;;;;;;;;;;;;;;;-1.88;95.63;93183.09;1422592;39;20333;31
2021/03/10 06:06:12;;;;;;;;;;;;;;;-1.93;95.46;93190.41;1421004;39;21282;31
2021/03/10 06:07:26;;;;;;;;;;;;;;;-1.91;94.92;93180.37;1432734;39;20234;31
2021/03/10 06:10:07;;;;;;;;;;;;;;;-1.72;94.61;93193.56;1437440;39;20221;31
2021/03/10 06:11:20;;;;;;;;;;;;;;;-1.83;94.12;93192.56;1415959;39;21336;31
2021/03/10 06:12:25;;;;;;;;;;;;;;;-1.85;94.63;93189.50;1419799;39;20211;31
2021/03/10 06:13:28;;;;;;;;;;;;;;;-1.79;94.11;93193.41;1429482;39;21133;31
2021/03/10 06:14:42;;;;;;;;;;;;;;;-1.84;94.17;93201.53;1420495;39;20367;31
2021/03/10 06:15:47;;;;;;;;;;;;;;;-1.84;94.35;93197.03;1412491;39;22214;31
2021/03/10 06:22:23;;;;;;;;;;;;;;;-1.74;93.37;93208.13;1447254;39;20214;31
2021/03/10 06:24:47;;;;;;;;;;;;;;;-1.77;94.30;93199.81;1305542;39;21152;31
2021/03/10 06:27:05;;;;;;;;;;;;;;;-1.74;94.54;93200.25;1436021;39;21254;31
2021/03/10 06:28:09;;;;;;;;;;;;;;;-1.67;94.50;93201.19;1425402;39;20215;31
2021/03/10 06:29:14;;;;;;;;;;;;;;;-1.63;94.81;93199.41;1419440;39;20243;31
2021/03/10 06:30:29;;;;;;;;;;;;;;;-1.60;95.23;93203.22;1418420;39;22370;31
2021/03/10 06:31:43;;;;;;;;;;;;;;;-1.54;95.12;93204.50;1423136;39;20247;31
2021/03/10 06:32:57;;;;;;;;;;;;;;;-1.54;95.30;93200.03;1428197;39;20322;31
2021/03/10 06:34:01;;;;;;;;;;;;;;;-1.46;94.65;93205.44;1418764;39;21173;31
2021/03/10 06:35:15;;;;;;;;;;;;;;;-1.42;94.56;93212.28;1425216;39;21113;31
2021/03/10 06:36:29;;;;;;;;;;;;;;;-1.34;94.75;93210.63;1423212;39;21162;31
2021/03/10 06:37:43;;;;;;;;;;;;;;;-1.20;94.55;93210.94;1416762;39;22400;31
2021/03/10 06:38:57;;;;;;;;;;;;;;;-1.16;93.66;93206.56;1424981;39;20349;31
2021/03/10 06:40:11;;;;;;;;;;;;;;;-1.14;93.80;93212.22;1415946;39;20366;31
2021/03/10 06:41:25;;;;;;;;;;;;;;;-1.06;93.89;93211.28;1400787;40;21246;31
2021/03/10 06:42:30;;;;;;;;;;;;;;;-1.03;93.71;93217.72;1408834;40;21132;31
2021/03/10 06:46:54;;;;;;;;;;;;;;;-0.77;92.90;93223.19;1424211;39;20195;31
2021/03/10 06:48:08;;;;;;;;;;;;;;;-0.74;93.04;93224.38;1409854;39;20246;31
2021/03/10 06:49:13;;;;;;;;;;;;;;;-0.72;93.39;93227.41;1420967;39;20239;31
2021/03/10 06:50:28;;;;;;;;;;;;;;;-0.60;93.26;93221.28;1424142;39;20314;31
2021/03/10 06:51:42;;;;;;;;;;;;;;;-0.53;92.54;93219.59;1424888;39;22418;31
2021/03/10 06:52:56;;;;;;;;;;;;;;;-0.41;92.63;93231.06;1415595;39;20647;31
2021/03/10 06:54:11;;;;;;;;;;;;;;;-0.33;92.37;93220.38;1419054;39;20315;31
2021/03/10 06:55:17;;;;;;;;;;;;;;;-0.52;92.46;93228.22;1432414;39;21117;31
2021/03/10 06:56:30;;;;;;;;;;;;;;;-0.50;92.26;93223.38;1424930;39;20235;31
2021/03/10 06:57:44;;;;;;;;;;;;;;;-0.51;92.10;93217.37;1420094;39;20211;31
2021/03/10 06:58:58;;;;;;;;;;;;;;;-0.51;92.43;93216.63;1422831;39;22397;31
2021/03/10 07:00:03;;;;;;;;;;;;;;;-0.51;92.31;93214.75;1421560;39;21209;31
2021/03/10 07:01:07;;;;;;;;;;;;;;;-0.45;93.11;93219.72;1422240;39;20310;31
2021/03/10 07:05:22;;;;;;;;;;;;;;;-0.35;92.55;93225.22;1448766;39;20265;31
2021/03/10 07:06:36;;;;;;;;;;;;;;;-0.30;92.75;93222.31;1425356;39;21133;31
2021/03/10 07:08:46;;;;;;;;;;;;;;;-0.24;91.93;93229.91;1431557;39;21272;31
2021/03/10 07:09:59;;;;;;;;;;;;;;;-0.14;92.10;93229.38;1422862;39;22807;31
2021/03/10 07:11:14;;;;;;;;;;;;;;;-0.15;92.31;93223.34;1415888;39;20216;31
2021/03/10 07:12:19;;;;;;;;;;;;;;;-0.17;91.90;93225.56;1420514;39;20250;31
2021/03/10 07:13:33;;;;;;;;;;;;;;;-0.16;92.29;93226.34;1421949;39;20243;31
2021/03/10 07:14:47;;;;;;;;;;;;;;;-0.13;92.01;93226.41;1427013;39;20227;31
2021/03/10 07:16:01;;;;;;;;;;;;;;;-0.07;92.54;93232.16;1424322;39;21156;31
2021/03/10 07:17:14;;;;;;;;;;;;;;;0.09;91.90;93222.34;1414722;39;20697;31
2021/03/10 07:18:31;;;;;;;;;;;;;;;0.14;91.44;93224.69;1417648;39;21194;31
2021/03/10 07:19:45;;;;;;;;;;;;;;;0.16;91.63;93225.06;1416436;39;20258;31
2021/03/10 07:20:59;;;;;;;;;;;;;;;0.19;91.47;93232.28;1417370;39;21072;31
2021/03/10 07:22:13;;;;;;;;;;;;;;;0.23;91.33;93224.47;1422488;39;20350;31
2021/03/10 07:23:19;;;;;;;;;;;;;;;0.47;90.93;93229.41;1419282;39;20227;31
2021/03/10 07:27:43;;;;;;;;;;;;;;;0.53;89.11;93231.75;1040492;39;21853;-84
2021/03/10 07:28:51;;;;;;;;;;;;;;;0.55;89.94;93232.91;1423384;39;20262;31
2021/03/10 07:30:06;;;;;;;;;;;;;;;0.66;89.59;93231.25;1422424;39;20222;31
2021/03/10 07:31:20;;;;;;;;;;;;;;;0.66;88.60;93233.09;1415156;39;20283;31
2021/03/10 07:32:34;;;;;;;;;;;;;;;0.71;88.27;93235.47;1434852;39;20209;31
2021/03/10 07:33:37;;;;;;;;;;;;;;;0.75;89.03;93234.41;1420501;39;22355;31
2021/03/10 07:34:41;;;;;;;;;;;;;;;0.83;89.25;93232.63;1417588;39;21310;31
2021/03/10 07:35:46;;;;;;;;;;;;;;;0.78;88.35;93234.81;1421866;39;20218;31
2021/03/10 07:36:50;;;;;;;;;;;;;;;0.83;87.98;93239.78;1418951;39;21584;31
2021/03/10 07:37:55;;;;;;;;;;;;;;;0.94;88.62;93238.84;1420508;39;20242;31
2021/03/10 07:39:01;;;;;;;;;;;;;;;0.89;88.08;93236.50;1419788;39;20265;31
2021/03/10 07:40:10;;;;;;;;;;;;;;;0.93;88.49;93241.84;1428129;39;20218;31
2021/03/10 07:41:14;;;;;;;;;;;;;;;1.02;88.01;93238.97;1051386;49;20200;-84
2021/03/10 07:42:15;;;;;;;;;;;;;;;1.05;88.35;93243.50;1046653;56;20228;-86
2021/03/10 07:44:23;;;;;;;;;;;;;;;1.08;87.36;93240.94;1338271;39;20250;31
2021/03/10 07:45:28;;;;;;;;;;;;;;;1.12;86.39;93251.53;1054250;49;20207;-83
2021/03/10 07:46:33;;;;;;;;;;;;;;;1.08;87.97;93250.72;1048496;56;20267;-85
2021/03/10 07:47:34;;;;;;;;;;;;;;;1.19;85.32;93239.25;1048446;56;21214;-84
2021/03/10 07:48:34;;;;;;;;;;;;;;;1.44;85.77;93244.88;1045844;57;20138;-83
2021/03/10 07:49:35;;;;;;;;;;;;;;;1.35;84.79;93251.50;1047953;56;20153;-84
2021/03/10 07:50:42;;;;;;;;;;;;;;;1.32;86.03;93249.56;1052587;56;20149;-85
2021/03/10 07:51:43;;;;;;;;;;;;;;;1.35;85.33;93254.13;1048818;56;20168;-84